sensor_id;sensor_type;location;lat;lon;timestamp;P1;durP1;ratioP1;P2;durP2;ratioP2
66597;SDS011;57424;53.128;6.406;2023-01-06T00:02:20;3.05;;;1.27;;
66597;SDS011;57424;53.128;6.406;2023-01-06T00:04:46;2.80;;;1.17;;
66597;SDS011;57424;53.128;6.406;2023-01-06T00:07:12;3.30;;;1.30;;
66597;SDS011;57424;53.128;6.406;2023-01-06T00:09:38;3.38;;;1.35;;
66597;SDS011;57424;53.128;6.406;2023-01-06T00:12:04;4.72;;;1.38;;
66597;SDS011;57424;53.128;6.406;2023-01-06T00:14:31;2.97;;;1.52;;
66597;SDS011;57424;53.128;6.406;2023-01-06T00:16:57;4.82;;;1.25;;
66597;SDS011;57424;53.128;6.406;2023-01-06T00:19:23;3.28;;;1.10;;
66597;SDS011;57424;53.128;6.406;2023-01-06T00:21:49;3.25;;;1.42;;
66597;SDS011;57424;53.128;6.406;2023-01-06T00:24:15;3.75;;;1.17;;
66597;SDS011;57424;53.128;6.406;2023-01-06T00:26:41;5.82;;;1.63;;
66597;SDS011;57424;53.128;6.406;2023-01-06T00:29:08;3.95;;;1.38;;
66597;SDS011;57424;53.128;6.406;2023-01-06T00:31:35;3.92;;;1.35;;
66597;SDS011;57424;53.128;6.406;2023-01-06T00:34:02;5.70;;;1.80;;
66597;SDS011;57424;53.128;6.406;2023-01-06T00:36:27;3.38;;;1.50;;
66597;SDS011;57424;53.128;6.406;2023-01-06T00:38:53;2.90;;;1.27;;
66597;SDS011;57424;53.128;6.406;2023-01-06T00:41:19;4.53;;;1.58;;
66597;SDS011;57424;53.128;6.406;2023-01-06T00:44:04;2.47;;;1.25;;
66597;SDS011;57424;53.128;6.406;2023-01-06T00:46:30;4.32;;;1.50;;
66597;SDS011;57424;53.128;6.406;2023-01-06T00:48:58;4.50;;;1.15;;
66597;SDS011;57424;53.128;6.406;2023-01-06T00:51:24;3.85;;;1.30;;
66597;SDS011;57424;53.128;6.406;2023-01-06T00:53:50;2.05;;;1.20;;
66597;SDS011;57424;53.128;6.406;2023-01-06T00:56:16;3.85;;;1.50;;
66597;SDS011;57424;53.128;6.406;2023-01-06T00:58:42;4.05;;;1.42;;
66597;SDS011;57424;53.128;6.406;2023-01-06T01:01:08;2.22;;;1.15;;
66597;SDS011;57424;53.128;6.406;2023-01-06T01:03:35;5.88;;;1.48;;
66597;SDS011;57424;53.128;6.406;2023-01-06T01:06:07;7.50;;;1.60;;
66597;SDS011;57424;53.128;6.406;2023-01-06T01:08:33;3.10;;;1.50;;
66597;SDS011;57424;53.128;6.406;2023-01-06T01:11:10;2.65;;;1.30;;
66597;SDS011;57424;53.128;6.406;2023-01-06T01:13:59;3.55;;;1.23;;
66597;SDS011;57424;53.128;6.406;2023-01-06T01:16:25;3.28;;;1.20;;
66597;SDS011;57424;53.128;6.406;2023-01-06T01:18:51;3.85;;;1.52;;
66597;SDS011;57424;53.128;6.406;2023-01-06T01:21:17;2.10;;;1.00;;
66597;SDS011;57424;53.128;6.406;2023-01-06T01:23:43;3.05;;;1.10;;
66597;SDS011;57424;53.128;6.406;2023-01-06T01:26:09;3.13;;;1.38;;
66597;SDS011;57424;53.128;6.406;2023-01-06T01:28:35;4.07;;;1.10;;
66597;SDS011;57424;53.128;6.406;2023-01-06T01:31:01;4.07;;;1.10;;
66597;SDS011;57424;53.128;6.406;2023-01-06T01:33:28;2.90;;;1.10;;
66597;SDS011;57424;53.128;6.406;2023-01-06T01:35:54;2.95;;;1.05;;
66597;SDS011;57424;53.128;6.406;2023-01-06T01:38:20;2.47;;;1.17;;
66597;SDS011;57424;53.128;6.406;2023-01-06T01:40:49;3.60;;;1.00;;
66597;SDS011;57424;53.128;6.406;2023-01-06T01:43:15;1.88;;;1.10;;
66597;SDS011;57424;53.128;6.406;2023-01-06T01:45:42;3.05;;;1.15;;
66597;SDS011;57424;53.128;6.406;2023-01-06T01:48:13;3.92;;;1.05;;
66597;SDS011;57424;53.128;6.406;2023-01-06T01:50:43;3.22;;;1.13;;
66597;SDS011;57424;53.128;6.406;2023-01-06T01:53:20;2.97;;;1.23;;
66597;SDS011;57424;53.128;6.406;2023-01-06T01:55:47;3.88;;;1.30;;
66597;SDS011;57424;53.128;6.406;2023-01-06T01:58:15;3.17;;;1.30;;
66597;SDS011;57424;53.128;6.406;2023-01-06T02:00:41;1.85;;;1.10;;
66597;SDS011;57424;53.128;6.406;2023-01-06T02:03:08;3.75;;;1.20;;
66597;SDS011;57424;53.128;6.406;2023-01-06T02:05:35;3.70;;;1.23;;
66597;SDS011;57424;53.128;6.406;2023-01-06T02:08:04;2.53;;;1.10;;
66597;SDS011;57424;53.128;6.406;2023-01-06T02:10:31;4.32;;;1.50;;
66597;SDS011;57424;53.128;6.406;2023-01-06T02:12:57;2.70;;;0.98;;
66597;SDS011;57424;53.128;6.406;2023-01-06T02:20:33;1.85;;;1.05;;
66597;SDS011;57424;53.128;6.406;2023-01-06T02:33:24;2.20;;;0.90;;
66597;SDS011;57424;53.128;6.406;2023-01-06T02:38:35;2.70;;;1.00;;
66597;SDS011;57424;53.128;6.406;2023-01-06T02:56:21;1.83;;;0.90;;
66597;SDS011;57424;53.128;6.406;2023-01-06T02:58:53;2.67;;;1.05;;
66597;SDS011;57424;53.128;6.406;2023-01-06T03:03:47;3.38;;;0.95;;
66597;SDS011;57424;53.128;6.406;2023-01-06T03:06:16;1.63;;;0.90;;
66597;SDS011;57424;53.128;6.406;2023-01-06T03:08:43;2.17;;;0.82;;
66597;SDS011;57424;53.128;6.406;2023-01-06T03:11:10;2.05;;;0.90;;
66597;SDS011;57424;53.128;6.406;2023-01-06T03:16:05;1.80;;;0.95;;
66597;SDS011;57424;53.128;6.406;2023-01-06T03:18:32;1.70;;;0.85;;
66597;SDS011;57424;53.128;6.406;2023-01-06T03:21:00;1.93;;;0.97;;
66597;SDS011;57424;53.128;6.406;2023-01-06T03:23:28;1.60;;;1.00;;
66597;SDS011;57424;53.128;6.406;2023-01-06T03:25:54;2.05;;;1.02;;
66597;SDS011;57424;53.128;6.406;2023-01-06T03:28:20;2.15;;;1.20;;
66597;SDS011;57424;53.128;6.406;2023-01-06T03:30:47;2.67;;;0.90;;
66597;SDS011;57424;53.128;6.406;2023-01-06T03:33:21;2.53;;;1.05;;
66597;SDS011;57424;53.128;6.406;2023-01-06T03:43:53;2.17;;;0.90;;
66597;SDS011;57424;53.128;6.406;2023-01-06T03:53:57;2.15;;;0.82;;
66597;SDS011;57424;53.128;6.406;2023-01-06T03:56:27;2.85;;;0.88;;
66597;SDS011;57424;53.128;6.406;2023-01-06T03:58:56;2.67;;;0.90;;
66597;SDS011;57424;53.128;6.406;2023-01-06T04:01:23;2.30;;;0.93;;
66597;SDS011;57424;53.128;6.406;2023-01-06T04:03:51;3.63;;;0.90;;
66597;SDS011;57424;53.128;6.406;2023-01-06T04:06:17;3.67;;;1.20;;
66597;SDS011;57424;53.128;6.406;2023-01-06T04:08:43;1.75;;;0.90;;
66597;SDS011;57424;53.128;6.406;2023-01-06T04:11:09;2.97;;;0.95;;
66597;SDS011;57424;53.128;6.406;2023-01-06T04:13:55;2.47;;;1.08;;
66597;SDS011;57424;53.128;6.406;2023-01-06T04:16:21;3.65;;;1.13;;
66597;SDS011;57424;53.128;6.406;2023-01-06T04:18:47;1.90;;;0.90;;
66597;SDS011;57424;53.128;6.406;2023-01-06T04:21:13;2.17;;;0.82;;
66597;SDS011;57424;53.128;6.406;2023-01-06T04:23:39;2.00;;;0.90;;
66597;SDS011;57424;53.128;6.406;2023-01-06T04:26:05;2.00;;;1.00;;
66597;SDS011;57424;53.128;6.406;2023-01-06T04:28:31;2.90;;;1.17;;
66597;SDS011;57424;53.128;6.406;2023-01-06T04:30:57;1.40;;;0.80;;
66597;SDS011;57424;53.128;6.406;2023-01-06T04:33:23;2.17;;;0.90;;
66597;SDS011;57424;53.128;6.406;2023-01-06T04:35:49;1.52;;;0.90;;
66597;SDS011;57424;53.128;6.406;2023-01-06T04:38:15;4.75;;;1.00;;
66597;SDS011;57424;53.128;6.406;2023-01-06T04:40:41;3.38;;;1.33;;
66597;SDS011;57424;53.128;6.406;2023-01-06T04:43:07;1.98;;;0.90;;
66597;SDS011;57424;53.128;6.406;2023-01-06T04:45:39;1.00;;;0.70;;
66597;SDS011;57424;53.128;6.406;2023-01-06T04:48:05;2.90;;;0.98;;
66597;SDS011;57424;53.128;6.406;2023-01-06T04:50:32;1.75;;;1.00;;
66597;SDS011;57424;53.128;6.406;2023-01-06T04:52:58;0.80;;;0.65;;
66597;SDS011;57424;53.128;6.406;2023-01-06T04:55:24;1.90;;;0.93;;
66597;SDS011;57424;53.128;6.406;2023-01-06T04:57:50;1.40;;;0.80;;
66597;SDS011;57424;53.128;6.406;2023-01-06T05:00:16;0.88;;;0.55;;
66597;SDS011;57424;53.128;6.406;2023-01-06T05:02:42;1.73;;;0.98;;
66597;SDS011;57424;53.128;6.406;2023-01-06T05:05:09;3.13;;;1.15;;
66597;SDS011;57424;53.128;6.406;2023-01-06T05:07:35;2.00;;;0.82;;
66597;SDS011;57424;53.128;6.406;2023-01-06T05:10:01;2.53;;;0.90;;
66597;SDS011;57424;53.128;6.406;2023-01-06T05:12:27;1.85;;;0.73;;
66597;SDS011;57424;53.128;6.406;2023-01-06T05:14:53;0.88;;;0.80;;
66597;SDS011;57424;53.128;6.406;2023-01-06T05:17:19;1.90;;;0.98;;
66597;SDS011;57424;53.128;6.406;2023-01-06T05:19:45;2.35;;;0.93;;
66597;SDS011;57424;53.128;6.406;2023-01-06T05:22:11;1.88;;;0.70;;
66597;SDS011;57424;53.128;6.406;2023-01-06T05:24:37;2.40;;;0.90;;
66597;SDS011;57424;53.128;6.406;2023-01-06T05:27:04;1.67;;;0.90;;
66597;SDS011;57424;53.128;6.406;2023-01-06T05:29:30;3.17;;;0.80;;
66597;SDS011;57424;53.128;6.406;2023-01-06T05:31:56;1.65;;;0.82;;
66597;SDS011;57424;53.128;6.406;2023-01-06T05:34:22;3.08;;;1.27;;
66597;SDS011;57424;53.128;6.406;2023-01-06T05:36:48;1.10;;;0.80;;
66597;SDS011;57424;53.128;6.406;2023-01-06T05:39:14;0.88;;;0.65;;
66597;SDS011;57424;53.128;6.406;2023-01-06T05:41:39;1.95;;;0.75;;
66597;SDS011;57424;53.128;6.406;2023-01-06T05:44:05;2.47;;;0.93;;
66597;SDS011;57424;53.128;6.406;2023-01-06T05:46:31;1.83;;;1.20;;
66597;SDS011;57424;53.128;6.406;2023-01-06T05:48:58;0.60;;;0.60;;
66597;SDS011;57424;53.128;6.406;2023-01-06T05:51:24;1.90;;;0.90;;
66597;SDS011;57424;53.128;6.406;2023-01-06T05:53:50;1.33;;;0.77;;
66597;SDS011;57424;53.128;6.406;2023-01-06T05:56:17;0.93;;;0.73;;
66597;SDS011;57424;53.128;6.406;2023-01-06T05:58:44;1.53;;;0.87;;
66597;SDS011;57424;53.128;6.406;2023-01-06T06:01:15;2.58;;;0.88;;
66597;SDS011;57424;53.128;6.406;2023-01-06T06:03:41;1.35;;;1.00;;
66597;SDS011;57424;53.128;6.406;2023-01-06T06:06:07;1.60;;;1.00;;
66597;SDS011;57424;53.128;6.406;2023-01-06T06:08:33;1.95;;;0.88;;
66597;SDS011;57424;53.128;6.406;2023-01-06T06:11:03;1.15;;;0.93;;
66597;SDS011;57424;53.128;6.406;2023-01-06T06:13:29;1.02;;;0.75;;
66597;SDS011;57424;53.128;6.406;2023-01-06T06:16:02;0.93;;;0.65;;
66597;SDS011;57424;53.128;6.406;2023-01-06T06:18:28;1.88;;;0.88;;
66597;SDS011;57424;53.128;6.406;2023-01-06T06:20:58;1.13;;;0.88;;
66597;SDS011;57424;53.128;6.406;2023-01-06T06:23:24;1.63;;;0.93;;
66597;SDS011;57424;53.128;6.406;2023-01-06T06:25:50;1.13;;;0.90;;
66597;SDS011;57424;53.128;6.406;2023-01-06T06:28:16;2.05;;;0.77;;
66597;SDS011;57424;53.128;6.406;2023-01-06T06:30:42;1.52;;;0.80;;
66597;SDS011;57424;53.128;6.406;2023-01-06T06:33:08;2.10;;;0.80;;
66597;SDS011;57424;53.128;6.406;2023-01-06T06:35:34;1.02;;;0.70;;
66597;SDS011;57424;53.128;6.406;2023-01-06T06:38:00;0.85;;;0.80;;
66597;SDS011;57424;53.128;6.406;2023-01-06T06:40:26;0.60;;;0.60;;
66597;SDS011;57424;53.128;6.406;2023-01-06T06:42:52;0.90;;;0.68;;
66597;SDS011;57424;53.128;6.406;2023-01-06T06:45:18;1.33;;;0.70;;
66597;SDS011;57424;53.128;6.406;2023-01-06T06:47:44;1.15;;;0.80;;
66597;SDS011;57424;53.128;6.406;2023-01-06T06:50:10;1.85;;;0.80;;
66597;SDS011;57424;53.128;6.406;2023-01-06T06:52:36;0.82;;;0.80;;
66597;SDS011;57424;53.128;6.406;2023-01-06T06:55:02;1.20;;;0.70;;
66597;SDS011;57424;53.128;6.406;2023-01-06T06:57:29;1.17;;;0.70;;
66597;SDS011;57424;53.128;6.406;2023-01-06T06:59:54;1.10;;;0.68;;
66597;SDS011;57424;53.128;6.406;2023-01-06T07:02:20;0.88;;;0.77;;
66597;SDS011;57424;53.128;6.406;2023-01-06T07:04:46;1.40;;;0.70;;
66597;SDS011;57424;53.128;6.406;2023-01-06T07:07:12;1.80;;;0.75;;
66597;SDS011;57424;53.128;6.406;2023-01-06T07:09:38;1.58;;;0.65;;
66597;SDS011;57424;53.128;6.406;2023-01-06T07:12:04;1.08;;;0.60;;
66597;SDS011;57424;53.128;6.406;2023-01-06T07:14:30;1.75;;;0.82;;
66597;SDS011;57424;53.128;6.406;2023-01-06T07:16:58;1.30;;;0.70;;
66597;SDS011;57424;53.128;6.406;2023-01-06T07:19:26;1.25;;;0.70;;
66597;SDS011;57424;53.128;6.406;2023-01-06T07:21:52;0.93;;;0.70;;
66597;SDS011;57424;53.128;6.406;2023-01-06T07:24:18;1.15;;;0.85;;
66597;SDS011;57424;53.128;6.406;2023-01-06T07:26:44;1.38;;;0.73;;
66597;SDS011;57424;53.128;6.406;2023-01-06T07:29:10;1.13;;;0.70;;
66597;SDS011;57424;53.128;6.406;2023-01-06T07:31:36;12.77;;;1.05;;
66597;SDS011;57424;53.128;6.406;2023-01-06T07:34:02;0.60;;;0.60;;
66597;SDS011;57424;53.128;6.406;2023-01-06T07:36:28;3.40;;;0.77;;
66597;SDS011;57424;53.128;6.406;2023-01-06T07:38:54;3.67;;;0.95;;
66597;SDS011;57424;53.128;6.406;2023-01-06T07:41:20;1.90;;;0.90;;
66597;SDS011;57424;53.128;6.406;2023-01-06T07:43:46;1.60;;;0.80;;
66597;SDS011;57424;53.128;6.406;2023-01-06T07:46:11;0.60;;;0.60;;
66597;SDS011;57424;53.128;6.406;2023-01-06T07:48:37;2.28;;;0.82;;
66597;SDS011;57424;53.128;6.406;2023-01-06T07:51:03;4.68;;;0.65;;
66597;SDS011;57424;53.128;6.406;2023-01-06T07:53:30;0.50;;;0.47;;
66597;SDS011;57424;53.128;6.406;2023-01-06T07:55:56;1.77;;;0.60;;
66597;SDS011;57424;53.128;6.406;2023-01-06T07:58:23;5.82;;;0.95;;
66597;SDS011;57424;53.128;6.406;2023-01-06T08:00:49;2.47;;;0.70;;
66597;SDS011;57424;53.128;6.406;2023-01-06T08:03:15;2.28;;;0.75;;
66597;SDS011;57424;53.128;6.406;2023-01-06T08:05:41;2.70;;;0.73;;
66597;SDS011;57424;53.128;6.406;2023-01-06T08:08:08;1.40;;;0.60;;
66597;SDS011;57424;53.128;6.406;2023-01-06T08:10:37;4.13;;;0.77;;
66597;SDS011;57424;53.128;6.406;2023-01-06T08:13:03;3.15;;;0.68;;
66597;SDS011;57424;53.128;6.406;2023-01-06T08:15:29;0.40;;;0.40;;
66597;SDS011;57424;53.128;6.406;2023-01-06T08:17:55;9.80;;;0.73;;
66597;SDS011;57424;53.128;6.406;2023-01-06T08:20:21;5.47;;;0.85;;
66597;SDS011;57424;53.128;6.406;2023-01-06T08:22:47;1.40;;;0.60;;
66597;SDS011;57424;53.128;6.406;2023-01-06T08:25:13;4.38;;;0.82;;
66597;SDS011;57424;53.128;6.406;2023-01-06T08:27:39;1.27;;;0.50;;
66597;SDS011;57424;53.128;6.406;2023-01-06T08:30:05;2.13;;;0.70;;
66597;SDS011;57424;53.128;6.406;2023-01-06T08:32:31;1.17;;;0.40;;
66597;SDS011;57424;53.128;6.406;2023-01-06T08:34:57;0.55;;;0.55;;
66597;SDS011;57424;53.128;6.406;2023-01-06T08:37:23;2.58;;;0.82;;
66597;SDS011;57424;53.128;6.406;2023-01-06T08:39:49;1.42;;;0.70;;
66597;SDS011;57424;53.128;6.406;2023-01-06T08:42:15;1.15;;;0.77;;
66597;SDS011;57424;53.128;6.406;2023-01-06T08:44:42;3.38;;;0.70;;
66597;SDS011;57424;53.128;6.406;2023-01-06T08:47:08;0.40;;;0.40;;
66597;SDS011;57424;53.128;6.406;2023-01-06T08:49:34;1.98;;;0.55;;
66597;SDS011;57424;53.128;6.406;2023-01-06T08:52:00;1.40;;;0.80;;
66597;SDS011;57424;53.128;6.406;2023-01-06T08:54:27;1.98;;;0.65;;
66597;SDS011;57424;53.128;6.406;2023-01-06T08:56:53;3.33;;;0.63;;
66597;SDS011;57424;53.128;6.406;2023-01-06T08:59:19;2.55;;;0.82;;
66597;SDS011;57424;53.128;6.406;2023-01-06T09:01:45;0.77;;;0.60;;
66597;SDS011;57424;53.128;6.406;2023-01-06T09:04:11;1.50;;;0.73;;
66597;SDS011;57424;53.128;6.406;2023-01-06T09:06:37;2.45;;;0.70;;
66597;SDS011;57424;53.128;6.406;2023-01-06T09:09:04;2.60;;;0.70;;
66597;SDS011;57424;53.128;6.406;2023-01-06T09:11:30;1.98;;;0.60;;
66597;SDS011;57424;53.128;6.406;2023-01-06T09:13:56;2.42;;;0.70;;
66597;SDS011;57424;53.128;6.406;2023-01-06T09:16:22;5.78;;;0.60;;
66597;SDS011;57424;53.128;6.406;2023-01-06T09:18:48;4.18;;;0.90;;
66597;SDS011;57424;53.128;6.406;2023-01-06T09:21:21;1.13;;;0.60;;
66597;SDS011;57424;53.128;6.406;2023-01-06T09:23:47;1.00;;;0.70;;
66597;SDS011;57424;53.128;6.406;2023-01-06T09:26:14;3.25;;;0.70;;
66597;SDS011;57424;53.128;6.406;2023-01-06T09:28:40;2.10;;;0.70;;
66597;SDS011;57424;53.128;6.406;2023-01-06T09:31:06;3.05;;;0.57;;
66597;SDS011;57424;53.128;6.406;2023-01-06T09:33:32;1.60;;;0.68;;
66597;SDS011;57424;53.128;6.406;2023-01-06T09:35:58;1.75;;;0.60;;
66597;SDS011;57424;53.128;6.406;2023-01-06T09:38:24;1.08;;;0.60;;
66597;SDS011;57424;53.128;6.406;2023-01-06T09:43:25;1.45;;;0.60;;
66597;SDS011;57424;53.128;6.406;2023-01-06T09:45:55;3.05;;;1.00;;
66597;SDS011;57424;53.128;6.406;2023-01-06T09:50:59;1.48;;;0.70;;
66597;SDS011;57424;53.128;6.406;2023-01-06T09:53:33;3.33;;;0.77;;
66597;SDS011;57424;53.128;6.406;2023-01-06T09:56:01;1.83;;;0.70;;
66597;SDS011;57424;53.128;6.406;2023-01-06T10:00:54;1.33;;;0.70;;
66597;SDS011;57424;53.128;6.406;2023-01-06T10:03:22;1.50;;;0.60;;
66597;SDS011;57424;53.128;6.406;2023-01-06T10:13:41;1.10;;;0.55;;
66597;SDS011;57424;53.128;6.406;2023-01-06T10:18:40;3.15;;;0.80;;
66597;SDS011;57424;53.128;6.406;2023-01-06T10:21:12;3.50;;;0.70;;
66597;SDS011;57424;53.128;6.406;2023-01-06T10:24:01;0.60;;;0.60;;
66597;SDS011;57424;53.128;6.406;2023-01-06T10:26:31;3.05;;;0.82;;
66597;SDS011;57424;53.128;6.406;2023-01-06T10:29:08;2.40;;;0.80;;
66597;SDS011;57424;53.128;6.406;2023-01-06T10:31:37;3.72;;;0.90;;
66597;SDS011;57424;53.128;6.406;2023-01-06T10:34:04;1.42;;;0.63;;
66597;SDS011;57424;53.128;6.406;2023-01-06T10:36:39;2.95;;;0.60;;
66597;SDS011;57424;53.128;6.406;2023-01-06T10:39:12;3.85;;;0.85;;
66597;SDS011;57424;53.128;6.406;2023-01-06T10:44:05;1.80;;;0.57;;
66597;SDS011;57424;53.128;6.406;2023-01-06T10:46:33;1.55;;;0.80;;
66597;SDS011;57424;53.128;6.406;2023-01-06T10:49:00;5.35;;;0.77;;
66597;SDS011;57424;53.128;6.406;2023-01-06T10:54:11;2.63;;;0.90;;
66597;SDS011;57424;53.128;6.406;2023-01-06T10:56:39;4.00;;;0.60;;
66597;SDS011;57424;53.128;6.406;2023-01-06T10:59:07;2.65;;;0.60;;
66597;SDS011;57424;53.128;6.406;2023-01-06T11:01:33;4.35;;;0.95;;
66597;SDS011;57424;53.128;6.406;2023-01-06T11:04:08;5.15;;;0.85;;
66597;SDS011;57424;53.128;6.406;2023-01-06T11:06:37;2.95;;;1.25;;
66597;SDS011;57424;53.128;6.406;2023-01-06T11:11:49;2.25;;;0.80;;
66597;SDS011;57424;53.128;6.406;2023-01-06T11:14:16;0.98;;;0.60;;
66597;SDS011;57424;53.128;6.406;2023-01-06T11:16:43;4.00;;;0.90;;
66597;SDS011;57424;53.128;6.406;2023-01-06T11:19:20;2.42;;;0.93;;
66597;SDS011;57424;53.128;6.406;2023-01-06T11:21:47;1.83;;;0.70;;
66597;SDS011;57424;53.128;6.406;2023-01-06T11:26:43;1.38;;;0.70;;
66597;SDS011;57424;53.128;6.406;2023-01-06T11:29:16;3.25;;;0.77;;
66597;SDS011;57424;53.128;6.406;2023-01-06T11:31:42;4.70;;;0.80;;
66597;SDS011;57424;53.128;6.406;2023-01-06T11:34:16;4.47;;;0.73;;
66597;SDS011;57424;53.128;6.406;2023-01-06T11:36:44;5.20;;;0.88;;
66597;SDS011;57424;53.128;6.406;2023-01-06T11:39:22;2.47;;;0.70;;
66597;SDS011;57424;53.128;6.406;2023-01-06T11:41:50;1.92;;;0.75;;
66597;SDS011;57424;53.128;6.406;2023-01-06T11:44:31;4.97;;;0.83;;
66597;SDS011;57424;53.128;6.406;2023-01-06T11:46:58;3.00;;;0.90;;
66597;SDS011;57424;53.128;6.406;2023-01-06T11:49:30;2.38;;;0.80;;
66597;SDS011;57424;53.128;6.406;2023-01-06T11:52:01;1.50;;;0.70;;
66597;SDS011;57424;53.128;6.406;2023-01-06T11:54:32;2.80;;;0.73;;
66597;SDS011;57424;53.128;6.406;2023-01-06T11:59:30;2.70;;;0.93;;
66597;SDS011;57424;53.128;6.406;2023-01-06T12:02:02;2.13;;;0.93;;
66597;SDS011;57424;53.128;6.406;2023-01-06T12:04:34;3.65;;;0.90;;
66597;SDS011;57424;53.128;6.406;2023-01-06T12:07:07;3.45;;;0.60;;
66597;SDS011;57424;53.128;6.406;2023-01-06T12:09:37;4.95;;;0.90;;
66597;SDS011;57424;53.128;6.406;2023-01-06T12:12:05;4.57;;;0.80;;
66597;SDS011;57424;53.128;6.406;2023-01-06T12:14:33;1.98;;;1.00;;
66597;SDS011;57424;53.128;6.406;2023-01-06T12:19:38;2.88;;;0.80;;
66597;SDS011;57424;53.128;6.406;2023-01-06T12:22:05;2.28;;;0.90;;
66597;SDS011;57424;53.128;6.406;2023-01-06T12:24:40;1.98;;;0.70;;
66597;SDS011;57424;53.128;6.406;2023-01-06T12:27:07;2.22;;;0.77;;
66597;SDS011;57424;53.128;6.406;2023-01-06T12:29:36;1.33;;;0.70;;
66597;SDS011;57424;53.128;6.406;2023-01-06T12:32:13;3.13;;;0.90;;
66597;SDS011;57424;53.128;6.406;2023-01-06T12:34:42;2.05;;;0.55;;
66597;SDS011;57424;53.128;6.406;2023-01-06T12:37:29;2.10;;;0.73;;
66597;SDS011;57424;53.128;6.406;2023-01-06T12:40:01;1.42;;;0.73;;
66597;SDS011;57424;53.128;6.406;2023-01-06T12:42:40;1.85;;;0.60;;
66597;SDS011;57424;53.128;6.406;2023-01-06T12:45:13;1.85;;;0.63;;
66597;SDS011;57424;53.128;6.406;2023-01-06T12:47:44;3.15;;;0.60;;
66597;SDS011;57424;53.128;6.406;2023-01-06T12:50:16;3.45;;;0.90;;
66597;SDS011;57424;53.128;6.406;2023-01-06T12:52:46;4.25;;;0.77;;
66597;SDS011;57424;53.128;6.406;2023-01-06T12:55:15;1.85;;;0.90;;
66597;SDS011;57424;53.128;6.406;2023-01-06T13:10:56;1.80;;;0.77;;
66597;SDS011;57424;53.128;6.406;2023-01-06T13:16:14;1.70;;;0.60;;
66597;SDS011;57424;53.128;6.406;2023-01-06T13:19:28;2.15;;;0.60;;
66597;SDS011;57424;53.128;6.406;2023-01-06T13:21:28;1.10;;;0.60;;
66597;SDS011;57424;53.128;6.406;2023-01-06T13:29:17;1.40;;;0.55;;
66597;SDS011;57424;53.128;6.406;2023-01-06T13:39:46;2.30;;;0.50;;
66597;SDS011;57424;53.128;6.406;2023-01-06T13:42:16;3.72;;;0.90;;
66597;SDS011;57424;53.128;6.406;2023-01-06T13:44:43;2.60;;;0.80;;
66597;SDS011;57424;53.128;6.406;2023-01-06T13:47:12;3.25;;;0.70;;
66597;SDS011;57424;53.128;6.406;2023-01-06T13:49:39;3.20;;;0.63;;
66597;SDS011;57424;53.128;6.406;2023-01-06T13:52:06;4.30;;;1.00;;
66597;SDS011;57424;53.128;6.406;2023-01-06T13:59:51;2.33;;;0.73;;
66597;SDS011;57424;53.128;6.406;2023-01-06T14:05:00;2.88;;;0.70;;
66597;SDS011;57424;53.128;6.406;2023-01-06T14:07:33;2.40;;;0.93;;
66597;SDS011;57424;53.128;6.406;2023-01-06T14:10:00;2.28;;;0.73;;
66597;SDS011;57424;53.128;6.406;2023-01-06T14:12:26;2.70;;;0.77;;
66597;SDS011;57424;53.128;6.406;2023-01-06T14:14:54;2.08;;;0.75;;
66597;SDS011;57424;53.128;6.406;2023-01-06T14:17:34;2.45;;;0.75;;
66597;SDS011;57424;53.128;6.406;2023-01-06T14:20:01;2.78;;;0.68;;
66597;SDS011;57424;53.128;6.406;2023-01-06T14:22:28;2.10;;;0.52;;
66597;SDS011;57424;53.128;6.406;2023-01-06T14:24:56;2.63;;;0.90;;
66597;SDS011;57424;53.128;6.406;2023-01-06T14:35:13;1.38;;;0.80;;
66597;SDS011;57424;53.128;6.406;2023-01-06T14:37:41;5.57;;;0.80;;
66597;SDS011;57424;53.128;6.406;2023-01-06T14:42:39;3.22;;;0.90;;
66597;SDS011;57424;53.128;6.406;2023-01-06T14:48:11;2.47;;;0.65;;
66597;SDS011;57424;53.128;6.406;2023-01-06T14:50:39;2.83;;;0.70;;
66597;SDS011;57424;53.128;6.406;2023-01-06T14:53:08;5.28;;;0.60;;
66597;SDS011;57424;53.128;6.406;2023-01-06T14:55:36;2.38;;;0.80;;
66597;SDS011;57424;53.128;6.406;2023-01-06T14:58:03;2.78;;;1.00;;
66597;SDS011;57424;53.128;6.406;2023-01-06T15:00:29;4.35;;;0.60;;
66597;SDS011;57424;53.128;6.406;2023-01-06T15:05:33;2.65;;;0.63;;
66597;SDS011;57424;53.128;6.406;2023-01-06T15:10:27;3.60;;;0.88;;
66597;SDS011;57424;53.128;6.406;2023-01-06T15:12:53;2.75;;;0.73;;
66597;SDS011;57424;53.128;6.406;2023-01-06T15:17:46;1.65;;;0.68;;
66597;SDS011;57424;53.128;6.406;2023-01-06T15:20:12;3.00;;;0.90;;
66597;SDS011;57424;53.128;6.406;2023-01-06T15:22:38;2.13;;;0.75;;
66597;SDS011;57424;53.128;6.406;2023-01-06T15:25:05;3.78;;;0.85;;
66597;SDS011;57424;53.128;6.406;2023-01-06T15:27:31;1.58;;;0.80;;
66597;SDS011;57424;53.128;6.406;2023-01-06T15:29:57;3.83;;;0.75;;
66597;SDS011;57424;53.128;6.406;2023-01-06T15:32:24;5.75;;;0.80;;
66597;SDS011;57424;53.128;6.406;2023-01-06T15:34:51;3.05;;;0.70;;
66597;SDS011;57424;53.128;6.406;2023-01-06T15:37:19;3.58;;;0.85;;
66597;SDS011;57424;53.128;6.406;2023-01-06T15:39:45;3.03;;;0.85;;
66597;SDS011;57424;53.128;6.406;2023-01-06T15:42:12;1.40;;;0.70;;
66597;SDS011;57424;53.128;6.406;2023-01-06T15:44:38;2.47;;;0.90;;
66597;SDS011;57424;53.128;6.406;2023-01-06T15:54:47;2.65;;;0.85;;
66597;SDS011;57424;53.128;6.406;2023-01-06T15:57:13;3.10;;;0.88;;
66597;SDS011;57424;53.128;6.406;2023-01-06T15:59:40;3.58;;;0.80;;
66597;SDS011;57424;53.128;6.406;2023-01-06T16:02:15;4.75;;;1.00;;
66597;SDS011;57424;53.128;6.406;2023-01-06T16:04:42;4.20;;;0.65;;
66597;SDS011;57424;53.128;6.406;2023-01-06T16:07:19;3.90;;;0.93;;
66597;SDS011;57424;53.128;6.406;2023-01-06T16:09:45;1.92;;;0.55;;
66597;SDS011;57424;53.128;6.406;2023-01-06T16:12:13;3.17;;;1.05;;
66597;SDS011;57424;53.128;6.406;2023-01-06T16:14:40;1.40;;;0.68;;
66597;SDS011;57424;53.128;6.406;2023-01-06T16:19:56;3.38;;;0.93;;
66597;SDS011;57424;53.128;6.406;2023-01-06T16:24:54;4.18;;;0.90;;
66597;SDS011;57424;53.128;6.406;2023-01-06T16:27:23;4.35;;;0.82;;
66597;SDS011;57424;53.128;6.406;2023-01-06T16:30:17;1.83;;;0.63;;
66597;SDS011;57424;53.128;6.406;2023-01-06T16:32:44;1.85;;;0.73;;
66597;SDS011;57424;53.128;6.406;2023-01-06T16:35:24;3.92;;;0.88;;
66597;SDS011;57424;53.128;6.406;2023-01-06T16:37:50;2.50;;;0.90;;
66597;SDS011;57424;53.128;6.406;2023-01-06T16:40:17;3.92;;;0.80;;
66597;SDS011;57424;53.128;6.406;2023-01-06T16:42:44;2.10;;;0.80;;
66597;SDS011;57424;53.128;6.406;2023-01-06T16:45:15;3.90;;;1.48;;
66597;SDS011;57424;53.128;6.406;2023-01-06T16:47:42;3.85;;;0.80;;
66597;SDS011;57424;53.128;6.406;2023-01-06T16:52:41;2.33;;;0.90;;
66597;SDS011;57424;53.128;6.406;2023-01-06T16:55:10;4.38;;;1.05;;
66597;SDS011;57424;53.128;6.406;2023-01-06T16:57:36;7.20;;;1.38;;
66597;SDS011;57424;53.128;6.406;2023-01-06T17:00:02;3.97;;;0.98;;
66597;SDS011;57424;53.128;6.406;2023-01-06T17:02:28;2.97;;;0.88;;
66597;SDS011;57424;53.128;6.406;2023-01-06T17:04:54;3.70;;;1.00;;
66597;SDS011;57424;53.128;6.406;2023-01-06T17:07:20;5.03;;;1.30;;
66597;SDS011;57424;53.128;6.406;2023-01-06T17:09:46;2.67;;;1.00;;
66597;SDS011;57424;53.128;6.406;2023-01-06T17:15:00;4.03;;;1.15;;
66597;SDS011;57424;53.128;6.406;2023-01-06T17:17:26;5.80;;;1.27;;
66597;SDS011;57424;53.128;6.406;2023-01-06T17:19:52;6.40;;;1.20;;
66597;SDS011;57424;53.128;6.406;2023-01-06T17:24:44;4.38;;;1.33;;
66597;SDS011;57424;53.128;6.406;2023-01-06T17:27:32;2.15;;;0.95;;
66597;SDS011;57424;53.128;6.406;2023-01-06T17:29:57;5.15;;;1.23;;
66597;SDS011;57424;53.128;6.406;2023-01-06T17:32:27;1.73;;;0.88;;
66597;SDS011;57424;53.128;6.406;2023-01-06T17:34:54;1.55;;;1.02;;
66597;SDS011;57424;53.128;6.406;2023-01-06T17:37:23;3.28;;;1.00;;
66597;SDS011;57424;53.128;6.406;2023-01-06T17:39:49;3.58;;;1.33;;